sensor_id;sensor_type;location;lat;lon;timestamp;pressure;altitude;pressure_sealevel;temperature
71640;BMP280;60912;48.968;10.124;2023-04-24T00:01:17;95615.84;;;12.46
71640;BMP280;60912;48.968;10.124;2023-04-24T00:03:48;95618.22;;;12.50
71640;BMP280;60912;48.968;10.124;2023-04-24T00:06:25;95617.66;;;12.51
71640;BMP280;60912;48.968;10.124;2023-04-24T00:09:00;95612.69;;;12.50
71640;BMP280;60912;48.968;10.124;2023-04-24T00:11:26;95615.72;;;12.54
71640;BMP280;60912;48.968;10.124;2023-04-24T00:13:59;95606.69;;;12.53
71640;BMP280;60912;48.968;10.124;2023-04-24T00:16:28;95613.69;;;12.54
71640;BMP280;60912;48.968;10.124;2023-04-24T00:18:58;95599.44;;;12.48
71640;BMP280;60912;48.968;10.124;2023-04-24T00:24:59;95617.31;;;12.37
71640;BMP280;60912;48.968;10.124;2023-04-24T00:27:24;95609.00;;;12.28
71640;BMP280;60912;48.968;10.124;2023-04-24T00:29:50;95613.34;;;12.31
71640;BMP280;60912;48.968;10.124;2023-04-24T00:32:15;95624.88;;;12.37
71640;BMP280;60912;48.968;10.124;2023-04-24T00:34:41;95623.41;;;12.46
71640;BMP280;60912;48.968;10.124;2023-04-24T00:37:07;95631.47;;;12.51
71640;BMP280;60912;48.968;10.124;2023-04-24T00:39:32;95627.22;;;12.50
71640;BMP280;60912;48.968;10.124;2023-04-24T00:41:58;95623.00;;;12.49
71640;BMP280;60912;48.968;10.124;2023-04-24T00:44:30;95612.13;;;12.51
71640;BMP280;60912;48.968;10.124;2023-04-24T00:46:55;95609.19;;;12.59
71640;BMP280;60912;48.968;10.124;2023-04-24T00:49:21;95610.75;;;12.52
71640;BMP280;60912;48.968;10.124;2023-04-24T00:51:47;95615.28;;;12.48
71640;BMP280;60912;48.968;10.124;2023-04-24T00:54:17;95616.88;;;12.41
71640;BMP280;60912;48.968;10.124;2023-04-24T00:56:44;95614.25;;;12.43
71640;BMP280;60912;48.968;10.124;2023-04-24T00:59:10;95613.09;;;12.46
71640;BMP280;60912;48.968;10.124;2023-04-24T01:01:36;95607.56;;;12.46
71640;BMP280;60912;48.968;10.124;2023-04-24T01:04:04;95606.97;;;12.38
71640;BMP280;60912;48.968;10.124;2023-04-24T01:06:31;95608.25;;;12.27
71640;BMP280;60912;48.968;10.124;2023-04-24T01:08:59;95621.22;;;12.34
71640;BMP280;60912;48.968;10.124;2023-04-24T01:11:25;95620.94;;;12.40
71640;BMP280;60912;48.968;10.124;2023-04-24T01:13:51;95607.44;;;12.44
71640;BMP280;60912;48.968;10.124;2023-04-24T01:16:16;95622.69;;;12.45
71640;BMP280;60912;48.968;10.124;2023-04-24T01:18:43;95614.72;;;12.49
71640;BMP280;60912;48.968;10.124;2023-04-24T01:21:10;95615.72;;;12.54
71640;BMP280;60912;48.968;10.124;2023-04-24T01:23:37;95610.19;;;12.54
71640;BMP280;60912;48.968;10.124;2023-04-24T01:26:03;95604.66;;;12.54
71640;BMP280;60912;48.968;10.124;2023-04-24T01:28:28;95598.41;;;12.53
71640;BMP280;60912;48.968;10.124;2023-04-24T01:30:54;95599.00;;;12.52
71640;BMP280;60912;48.968;10.124;2023-04-24T01:33:21;95588.66;;;12.52
71640;BMP280;60912;48.968;10.124;2023-04-24T01:35:47;95590.69;;;12.42
71640;BMP280;60912;48.968;10.124;2023-04-24T01:38:13;95596.22;;;12.42
71640;BMP280;60912;48.968;10.124;2023-04-24T01:40:38;95589.53;;;12.26
71640;BMP280;60912;48.968;10.124;2023-04-24T01:43:03;95583.69;;;12.22
71640;BMP280;60912;48.968;10.124;2023-04-24T01:45:29;95591.22;;;12.12
71640;BMP280;60912;48.968;10.124;2023-04-24T01:47:55;95576.53;;;12.00
71640;BMP280;60912;48.968;10.124;2023-04-24T01:50:20;95581.47;;;12.01
71640;BMP280;60912;48.968;10.124;2023-04-24T01:52:46;95573.91;;;12.02
71640;BMP280;60912;48.968;10.124;2023-04-24T01:55:11;95579.56;;;12.04
71640;BMP280;60912;48.968;10.124;2023-04-24T01:57:36;95583.66;;;12.12
71640;BMP280;60912;48.968;10.124;2023-04-24T02:00:03;95571.72;;;12.10
71640;BMP280;60912;48.968;10.124;2023-04-24T02:02:30;95572.06;;;12.14
71640;BMP280;60912;48.968;10.124;2023-04-24T02:04:56;95566.81;;;12.18
71640;BMP280;60912;48.968;10.124;2023-04-24T02:07:21;95571.03;;;12.19
71640;BMP280;60912;48.968;10.124;2023-04-24T02:09:47;95563.19;;;12.25
71640;BMP280;60912;48.968;10.124;2023-04-24T02:12:13;95564.78;;;12.28
71640;BMP280;60912;48.968;10.124;2023-04-24T02:14:38;95560.00;;;12.28
71640;BMP280;60912;48.968;10.124;2023-04-24T02:17:04;95556.50;;;12.18
71640;BMP280;60912;48.968;10.124;2023-04-24T02:19:30;95555.03;;;12.17
71640;BMP280;60912;48.968;10.124;2023-04-24T02:21:55;95556.50;;;12.09
71640;BMP280;60912;48.968;10.124;2023-04-24T02:24:21;95552.09;;;12.06
71640;BMP280;60912;48.968;10.124;2023-04-24T02:26:46;95551.81;;;12.02
71640;BMP280;60912;48.968;10.124;2023-04-24T02:29:11;95554.72;;;11.94
71640;BMP280;60912;48.968;10.124;2023-04-24T02:31:37;95547.16;;;11.94
71640;BMP280;60912;48.968;10.124;2023-04-24T02:34:02;95551.69;;;12.00
71640;BMP280;60912;48.968;10.124;2023-04-24T02:36:27;95555.31;;;12.02
71640;BMP280;60912;48.968;10.124;2023-04-24T02:38:53;95553.13;;;12.01
71640;BMP280;60912;48.968;10.124;2023-04-24T02:41:18;95550.66;;;12.05
71640;BMP280;60912;48.968;10.124;2023-04-24T02:43:44;95541.22;;;12.08
71640;BMP280;60912;48.968;10.124;2023-04-24T02:46:10;95548.22;;;12.09
71640;BMP280;60912;48.968;10.124;2023-04-24T02:48:35;95547.47;;;12.08
71640;BMP280;60912;48.968;10.124;2023-04-24T02:51:01;95550.97;;;12.09
71640;BMP280;60912;48.968;10.124;2023-04-24T02:53:26;95553.72;;;12.09
71640;BMP280;60912;48.968;10.124;2023-04-24T02:55:51;95559.81;;;12.07
71640;BMP280;60912;48.968;10.124;2023-04-24T02:58:17;95555.16;;;12.10
71640;BMP280;60912;48.968;10.124;2023-04-24T03:00:45;95553.97;;;11.93
71640;BMP280;60912;48.968;10.124;2023-04-24T03:03:10;95555.44;;;11.94
71640;BMP280;60912;48.968;10.124;2023-04-24T03:05:36;95552.06;;;11.86
71640;BMP280;60912;48.968;10.124;2023-04-24T03:08:01;95561.09;;;11.87
71640;BMP280;60912;48.968;10.124;2023-04-24T03:10:26;95552.22;;;11.88
71640;BMP280;60912;48.968;10.124;2023-04-24T03:12:52;95551.22;;;11.93
71640;BMP280;60912;48.968;10.124;2023-04-24T03:15:17;95544.41;;;11.94
71640;BMP280;60912;48.968;10.124;2023-04-24T03:17:43;95553.53;;;11.97
71640;BMP280;60912;48.968;10.124;2023-04-24T03:20:08;95557.72;;;11.88
71640;BMP280;60912;48.968;10.124;2023-04-24T03:22:34;95545.09;;;11.85
71640;BMP280;60912;48.968;10.124;2023-04-24T03:25:00;95549.44;;;11.88
71640;BMP280;60912;48.968;10.124;2023-04-24T03:27:26;95544.97;;;11.93
71640;BMP280;60912;48.968;10.124;2023-04-24T03:29:51;95545.66;;;11.84
71640;BMP280;60912;48.968;10.124;2023-04-24T03:32:20;95547.84;;;11.85
71640;BMP280;60912;48.968;10.124;2023-04-24T03:34:46;95548.13;;;11.89
71640;BMP280;60912;48.968;10.124;2023-04-24T03:37:11;95555.09;;;11.90
71640;BMP280;60912;48.968;10.124;2023-04-24T03:39:36;95561.31;;;11.72
71640;BMP280;60912;48.968;10.124;2023-04-24T03:42:02;95557.34;;;11.65
71640;BMP280;60912;48.968;10.124;2023-04-24T03:44:27;95557.06;;;11.61
71640;BMP280;60912;48.968;10.124;2023-04-24T03:46:53;95567.09;;;11.66
71640;BMP280;60912;48.968;10.124;2023-04-24T03:49:18;95564.81;;;11.72
71640;BMP280;60912;48.968;10.124;2023-04-24T03:51:43;95560.59;;;11.71
71640;BMP280;60912;48.968;10.124;2023-04-24T03:54:12;95572.16;;;11.60
71640;BMP280;60912;48.968;10.124;2023-04-24T03:56:37;95581.59;;;11.67
71640;BMP280;60912;48.968;10.124;2023-04-24T03:59:02;95582.97;;;11.75
71640;BMP280;60912;48.968;10.124;2023-04-24T04:01:31;95578.44;;;11.70
71640;BMP280;60912;48.968;10.124;2023-04-24T04:03:56;95578.28;;;11.68
71640;BMP280;60912;48.968;10.124;2023-04-24T04:06:22;95574.22;;;11.69
71640;BMP280;60912;48.968;10.124;2023-04-24T04:08:48;95567.06;;;11.57
71640;BMP280;60912;48.968;10.124;2023-04-24T04:11:13;95564.41;;;11.49
71640;BMP280;60912;48.968;10.124;2023-04-24T04:13:38;95551.16;;;11.38
71640;BMP280;60912;48.968;10.124;2023-04-24T04:16:04;95556.97;;;11.42
71640;BMP280;60912;48.968;10.124;2023-04-24T04:18:39;95563.22;;;11.52
71640;BMP280;60912;48.968;10.124;2023-04-24T04:21:04;95566.06;;;11.62
71640;BMP280;60912;48.968;10.124;2023-04-24T04:23:33;95563.34;;;11.71
71640;BMP280;60912;48.968;10.124;2023-04-24T04:25:58;95572.94;;;11.70
71640;BMP280;60912;48.968;10.124;2023-04-24T04:28:25;95578.59;;;11.72
71640;BMP280;60912;48.968;10.124;2023-04-24T04:30:53;95580.06;;;11.73
71640;BMP280;60912;48.968;10.124;2023-04-24T04:33:25;95573.53;;;11.78
71640;BMP280;60912;48.968;10.124;2023-04-24T04:35:51;95582.72;;;11.90
71640;BMP280;60912;48.968;10.124;2023-04-24T04:38:22;95584.47;;;11.95
71640;BMP280;60912;48.968;10.124;2023-04-24T04:40:48;95578.81;;;12.03
71640;BMP280;60912;48.968;10.124;2023-04-24T04:43:14;95580.16;;;12.02
71640;BMP280;60912;48.968;10.124;2023-04-24T04:45:43;95587.56;;;12.00
71640;BMP280;60912;48.968;10.124;2023-04-24T04:48:10;95578.56;;;11.99
71640;BMP280;60912;48.968;10.124;2023-04-24T04:50:38;95577.09;;;11.98
71640;BMP280;60912;48.968;10.124;2023-04-24T04:53:04;95574.59;;;11.92
71640;BMP280;60912;48.968;10.124;2023-04-24T04:55:30;95573.13;;;11.91
71640;BMP280;60912;48.968;10.124;2023-04-24T04:57:56;95583.03;;;11.94
71640;BMP280;60912;48.968;10.124;2023-04-24T05:00:21;95573.31;;;11.93
71640;BMP280;60912;48.968;10.124;2023-04-24T05:02:50;95584.81;;;12.00
71640;BMP280;60912;48.968;10.124;2023-04-24T05:05:16;95584.66;;;12.07
71640;BMP280;60912;48.968;10.124;2023-04-24T05:07:43;95577.97;;;12.10
71640;BMP280;60912;48.968;10.124;2023-04-24T05:10:08;95586.28;;;12.01
71640;BMP280;60912;48.968;10.124;2023-04-24T05:12:34;95591.47;;;11.96
71640;BMP280;60912;48.968;10.124;2023-04-24T05:14:59;95601.03;;;11.95
71640;BMP280;60912;48.968;10.124;2023-04-24T05:17:25;95594.94;;;11.97
71640;BMP280;60912;48.968;10.124;2023-04-24T05:19:51;95603.84;;;12.05
71640;BMP280;60912;48.968;10.124;2023-04-24T05:22:16;95605.88;;;12.05
71640;BMP280;60912;48.968;10.124;2023-04-24T05:24:43;95611.59;;;12.16
71640;BMP280;60912;48.968;10.124;2023-04-24T05:27:08;95619.44;;;12.20
71640;BMP280;60912;48.968;10.124;2023-04-24T05:29:34;95625.56;;;12.28
71640;BMP280;60912;48.968;10.124;2023-04-24T05:32:00;95643.50;;;12.36
71640;BMP280;60912;48.968;10.124;2023-04-24T05:34:26;95678.38;;;12.41
71640;BMP280;60912;48.968;10.124;2023-04-24T05:36:51;95701.44;;;12.27
71640;BMP280;60912;48.968;10.124;2023-04-24T05:39:17;95694.06;;;12.03
71640;BMP280;60912;48.968;10.124;2023-04-24T05:41:43;95687.78;;;11.66
71640;BMP280;60912;48.968;10.124;2023-04-24T05:44:08;95680.53;;;11.43
71640;BMP280;60912;48.968;10.124;2023-04-24T05:46:33;95679.63;;;11.41
71640;BMP280;60912;48.968;10.124;2023-04-24T05:48:59;95686.22;;;11.28
71640;BMP280;60912;48.968;10.124;2023-04-24T05:51:24;95685.63;;;11.30
71640;BMP280;60912;48.968;10.124;2023-04-24T05:53:51;95691.66;;;11.36
71640;BMP280;60912;48.968;10.124;2023-04-24T05:56:16;95680.13;;;11.47
71640;BMP280;60912;48.968;10.124;2023-04-24T05:58:42;95685.84;;;11.59
71640;BMP280;60912;48.968;10.124;2023-04-24T06:01:07;95692.09;;;11.59
71640;BMP280;60912;48.968;10.124;2023-04-24T06:03:33;95699.34;;;11.81
71640;BMP280;60912;48.968;10.124;2023-04-24T06:05:58;95718.78;;;12.01
71640;BMP280;60912;48.968;10.124;2023-04-24T06:08:24;95717.84;;;12.15
71640;BMP280;60912;48.968;10.124;2023-04-24T06:10:49;95706.47;;;12.11
71640;BMP280;60912;48.968;10.124;2023-04-24T06:13:15;95720.50;;;12.23
71640;BMP280;60912;48.968;10.124;2023-04-24T06:15:41;95712.97;;;12.33
71640;BMP280;60912;48.968;10.124;2023-04-24T06:18:07;95711.50;;;12.32
71640;BMP280;60912;48.968;10.124;2023-04-24T06:20:32;95716.28;;;11.95
71640;BMP280;60912;48.968;10.124;2023-04-24T06:22:58;95717.00;;;11.95
71640;BMP280;60912;48.968;10.124;2023-04-24T06:25:26;95728.19;;;11.88
71640;BMP280;60912;48.968;10.124;2023-04-24T06:27:52;95724.72;;;11.97
71640;BMP280;60912;48.968;10.124;2023-04-24T06:30:17;95730.50;;;11.91
71640;BMP280;60912;48.968;10.124;2023-04-24T06:32:43;95730.03;;;11.85
71640;BMP280;60912;48.968;10.124;2023-04-24T06:35:08;95737.22;;;11.98
71640;BMP280;60912;48.968;10.124;2023-04-24T06:37:35;95739.31;;;12.07
71640;BMP280;60912;48.968;10.124;2023-04-24T06:40:00;95733.56;;;12.22
71640;BMP280;60912;48.968;10.124;2023-04-24T06:42:25;95740.28;;;12.29
71640;BMP280;60912;48.968;10.124;2023-04-24T06:44:51;95731.59;;;12.42
71640;BMP280;60912;48.968;10.124;2023-04-24T06:47:16;95738.50;;;12.24
71640;BMP280;60912;48.968;10.124;2023-04-24T06:49:41;95741.94;;;12.41
71640;BMP280;60912;48.968;10.124;2023-04-24T06:52:07;95743.16;;;12.67
71640;BMP280;60912;48.968;10.124;2023-04-24T06:54:33;95740.00;;;12.80
71640;BMP280;60912;48.968;10.124;2023-04-24T06:56:59;95741.75;;;12.85
71640;BMP280;60912;48.968;10.124;2023-04-24T06:59:28;95742.94;;;12.82
71640;BMP280;60912;48.968;10.124;2023-04-24T07:01:55;95746.66;;;12.68
71640;BMP280;60912;48.968;10.124;2023-04-24T07:04:20;95744.38;;;12.83
71640;BMP280;60912;48.968;10.124;2023-04-24T07:06:46;95744.72;;;13.16
71640;BMP280;60912;48.968;10.124;2023-04-24T07:09:12;95746.94;;;13.37
71640;BMP280;60912;48.968;10.124;2023-04-24T07:11:39;95743.41;;;13.75
71640;BMP280;60912;48.968;10.124;2023-04-24T07:14:06;95736.91;;;13.92
71640;BMP280;60912;48.968;10.124;2023-04-24T07:16:31;95735.66;;;14.23
71640;BMP280;60912;48.968;10.124;2023-04-24T07:18:56;95749.66;;;14.56
71640;BMP280;60912;48.968;10.124;2023-04-24T07:21:22;95747.44;;;14.64
71640;BMP280;60912;48.968;10.124;2023-04-24T07:23:47;95748.50;;;14.59
71640;BMP280;60912;48.968;10.124;2023-04-24T07:26:12;95743.13;;;14.73
71640;BMP280;60912;48.968;10.124;2023-04-24T07:28:40;95731.97;;;14.61
71640;BMP280;60912;48.968;10.124;2023-04-24T07:31:06;95736.09;;;15.03
71640;BMP280;60912;48.968;10.124;2023-04-24T07:33:31;95733.97;;;15.13
71640;BMP280;60912;48.968;10.124;2023-04-24T07:35:56;95746.78;;;15.39
71640;BMP280;60912;48.968;10.124;2023-04-24T07:38:22;95750.59;;;15.34
71640;BMP280;60912;48.968;10.124;2023-04-24T07:40:48;95741.22;;;15.39
71640;BMP280;60912;48.968;10.124;2023-04-24T07:43:14;95754.38;;;15.39
71640;BMP280;60912;48.968;10.124;2023-04-24T07:45:39;95742.53;;;15.83
71640;BMP280;60912;48.968;10.124;2023-04-24T07:48:05;95737.72;;;16.18
71640;BMP280;60912;48.968;10.124;2023-04-24T07:50:31;95749.81;;;16.57
71640;BMP280;60912;48.968;10.124;2023-04-24T07:52:57;95745.00;;;16.46
71640;BMP280;60912;48.968;10.124;2023-04-24T07:55:22;95742.09;;;16.09
71640;BMP280;60912;48.968;10.124;2023-04-24T07:57:48;95735.06;;;16.08
71640;BMP280;60912;48.968;10.124;2023-04-24T08:00:13;95751.78;;;16.32
71640;BMP280;60912;48.968;10.124;2023-04-24T08:02:39;95760.66;;;15.84
71640;BMP280;60912;48.968;10.124;2023-04-24T08:05:05;95761.44;;;15.51
71640;BMP280;60912;48.968;10.124;2023-04-24T08:07:31;95759.34;;;15.52
71640;BMP280;60912;48.968;10.124;2023-04-24T08:09:57;95762.56;;;15.81
71640;BMP280;60912;48.968;10.124;2023-04-24T08:12:22;95765.06;;;16.33
71640;BMP280;60912;48.968;10.124;2023-04-24T08:17:33;95753.38;;;17.32
71640;BMP280;60912;48.968;10.124;2023-04-24T08:20:28;95755.84;;;17.51
71640;BMP280;60912;48.968;10.124;2023-04-24T08:23:20;95755.59;;;17.97
71640;BMP280;60912;48.968;10.124;2023-04-24T08:25:54;95749.69;;;17.52
71640;BMP280;60912;48.968;10.124;2023-04-24T08:28:31;95756.59;;;17.14
71640;BMP280;60912;48.968;10.124;2023-04-24T08:31:02;95755.94;;;17.02
71640;BMP280;60912;48.968;10.124;2023-04-24T08:33:30;95758.72;;;16.91
71640;BMP280;60912;48.968;10.124;2023-04-24T08:36:08;95775.44;;;16.79
71640;BMP280;60912;48.968;10.124;2023-04-24T08:38:33;95776.56;;;16.28
71640;BMP280;60912;48.968;10.124;2023-04-24T08:41:15;95776.56;;;15.72
71640;BMP280;60912;48.968;10.124;2023-04-24T08:43:48;95786.13;;;15.47
71640;BMP280;60912;48.968;10.124;2023-04-24T08:46:18;95784.16;;;14.96
71640;BMP280;60912;48.968;10.124;2023-04-24T08:48:55;95779.41;;;14.65
71640;BMP280;60912;48.968;10.124;2023-04-24T08:51:21;95778.38;;;14.61
71640;BMP280;60912;48.968;10.124;2023-04-24T08:54:01;95789.31;;;14.90
71640;BMP280;60912;48.968;10.124;2023-04-24T08:56:38;95791.13;;;15.06
71640;BMP280;60912;48.968;10.124;2023-04-24T08:59:11;95791.31;;;14.99
71640;BMP280;60912;48.968;10.124;2023-04-24T09:01:37;95794.44;;;15.14
71640;BMP280;60912;48.968;10.124;2023-04-24T09:04:07;95799.72;;;15.10
71640;BMP280;60912;48.968;10.124;2023-04-24T09:06:37;95788.09;;;15.02
71640;BMP280;60912;48.968;10.124;2023-04-24T09:09:02;95793.75;;;14.83
71640;BMP280;60912;48.968;10.124;2023-04-24T09:11:30;95804.97;;;14.54
71640;BMP280;60912;48.968;10.124;2023-04-24T09:13:56;95797.16;;;14.41
71640;BMP280;60912;48.968;10.124;2023-04-24T09:16:22;95785.47;;;13.83
71640;BMP280;60912;48.968;10.124;2023-04-24T09:18:50;95793.38;;;13.67
71640;BMP280;60912;48.968;10.124;2023-04-24T09:21:15;95797.28;;;13.84
71640;BMP280;60912;48.968;10.124;2023-04-24T09:23:41;95801.03;;;14.07
71640;BMP280;60912;48.968;10.124;2023-04-24T09:26:09;95806.50;;;14.36
71640;BMP280;60912;48.968;10.124;2023-04-24T09:28:36;95808.66;;;14.78
71640;BMP280;60912;48.968;10.124;2023-04-24T09:31:12;95809.53;;;15.02
71640;BMP280;60912;48.968;10.124;2023-04-24T09:33:39;95804.47;;;14.67
71640;BMP280;60912;48.968;10.124;2023-04-24T09:36:05;95815.84;;;14.41
71640;BMP280;60912;48.968;10.124;2023-04-24T09:38:36;95817.53;;;13.96
71640;BMP280;60912;48.968;10.124;2023-04-24T09:41:06;95826.56;;;14.06
71640;BMP280;60912;48.968;10.124;2023-04-24T09:43:32;95818.25;;;13.96
71640;BMP280;60912;48.968;10.124;2023-04-24T09:45:58;95830.97;;;13.80
71640;BMP280;60912;48.968;10.124;2023-04-24T09:48:31;95821.03;;;13.96
71640;BMP280;60912;48.968;10.124;2023-04-24T09:50:57;95823.44;;;14.71
71640;BMP280;60912;48.968;10.124;2023-04-24T09:53:26;95829.09;;;15.46
71640;BMP280;60912;48.968;10.124;2023-04-24T09:55:52;95803.03;;;16.29
71640;BMP280;60912;48.968;10.124;2023-04-24T09:58:24;95814.63;;;16.72
71640;BMP280;60912;48.968;10.124;2023-04-24T10:00:53;95796.44;;;17.05
71640;BMP280;60912;48.968;10.124;2023-04-24T10:03:18;95803.16;;;17.62
71640;BMP280;60912;48.968;10.124;2023-04-24T10:05:46;95819.56;;;17.45
71640;BMP280;60912;48.968;10.124;2023-04-24T10:08:12;95812.31;;;17.03
71640;BMP280;60912;48.968;10.124;2023-04-24T10:10:43;95822.97;;;16.48
71640;BMP280;60912;48.968;10.124;2023-04-24T10:13:09;95831.75;;;16.10
71640;BMP280;60912;48.968;10.124;2023-04-24T10:15:36;95830.38;;;15.34
71640;BMP280;60912;48.968;10.124;2023-04-24T10:18:04;95833.22;;;15.24
71640;BMP280;60912;48.968;10.124;2023-04-24T10:20:30;95846.94;;;15.43
71640;BMP280;60912;48.968;10.124;2023-04-24T10:22:59;95837.41;;;15.67
71640;BMP280;60912;48.968;10.124;2023-04-24T10:25:30;95836.56;;;16.42
71640;BMP280;60912;48.968;10.124;2023-04-24T10:27:56;95848.63;;;16.58
71640;BMP280;60912;48.968;10.124;2023-04-24T10:30:25;95851.19;;;16.54
71640;BMP280;60912;48.968;10.124;2023-04-24T10:32:50;95844.88;;;16.54
71640;BMP280;60912;48.968;10.124;2023-04-24T10:35:17;95846.53;;;16.24
71640;BMP280;60912;48.968;10.124;2023-04-24T10:37:49;95848.53;;;15.25
71640;BMP280;60912;48.968;10.124;2023-04-24T10:40:19;95854.47;;;15.10
71640;BMP280;60912;48.968;10.124;2023-04-24T10:42:51;95868.34;;;14.89
71640;BMP280;60912;48.968;10.124;2023-04-24T10:45:19;95879.91;;;15.06
71640;BMP280;60912;48.968;10.124;2023-04-24T10:48:08;95887.44;;;14.54
71640;BMP280;60912;48.968;10.124;2023-04-24T10:50:53;95885.69;;;14.49
71640;BMP280;60912;48.968;10.124;2023-04-24T10:53:42;95885.88;;;14.22
71640;BMP280;60912;48.968;10.124;2023-04-24T10:56:24;95887.88;;;14.50
71640;BMP280;60912;48.968;10.124;2023-04-24T10:58:52;95878.19;;;14.61
71640;BMP280;60912;48.968;10.124;2023-04-24T11:01:25;95887.25;;;15.02
71640;BMP280;60912;48.968;10.124;2023-04-24T11:04:09;95882.56;;;15.68
71640;BMP280;60912;48.968;10.124;2023-04-24T11:06:57;95882.38;;;15.76
71640;BMP280;60912;48.968;10.124;2023-04-24T11:09:30;95873.66;;;16.47
71640;BMP280;60912;48.968;10.124;2023-04-24T11:12:09;95873.50;;;17.38
71640;BMP280;60912;48.968;10.124;2023-04-24T11:15:10;95882.25;;;16.86
71640;BMP280;60912;48.968;10.124;2023-04-24T11:17:57;95894.31;;;16.32
71640;BMP280;60912;48.968;10.124;2023-04-24T11:20:42;95884.78;;;15.27
71640;BMP280;60912;48.968;10.124;2023-04-24T11:23:18;95892.03;;;15.11
71640;BMP280;60912;48.968;10.124;2023-04-24T11:26:14;95892.66;;;15.00
71640;BMP280;60912;48.968;10.124;2023-04-24T11:28:49;95899.78;;;14.72
71640;BMP280;60912;48.968;10.124;2023-04-24T11:31:36;95912.50;;;14.65
71640;BMP280;60912;48.968;10.124;2023-04-24T11:34:13;95900.13;;;14.47
71640;BMP280;60912;48.968;10.124;2023-04-24T11:36:40;95899.41;;;14.47
71640;BMP280;60912;48.968;10.124;2023-04-24T11:39:07;95905.03;;;14.78
71640;BMP280;60912;48.968;10.124;2023-04-24T11:41:33;95902.88;;;14.66
71640;BMP280;60912;48.968;10.124;2023-04-24T11:44:00;95906.00;;;14.82
71640;BMP280;60912;48.968;10.124;2023-04-24T11:46:28;95911.88;;;14.77
71640;BMP280;60912;48.968;10.124;2023-04-24T11:48:54;95922.25;;;14.76
71640;BMP280;60912;48.968;10.124;2023-04-24T11:51:19;95926.78;;;14.71
71640;BMP280;60912;48.968;10.124;2023-04-24T11:53:45;95921.34;;;14.83
71640;BMP280;60912;48.968;10.124;2023-04-24T11:56:10;95921.25;;;15.02
71640;BMP280;60912;48.968;10.124;2023-04-24T11:58:37;95921.31;;;15.24
71640;BMP280;60912;48.968;10.124;2023-04-24T12:01:03;95924.69;;;15.22
71640;BMP280;60912;48.968;10.124;2023-04-24T12:03:29;95921.88;;;15.53
71640;BMP280;60912;48.968;10.124;2023-04-24T12:06:11;95927.50;;;15.64
71640;BMP280;60912;48.968;10.124;2023-04-24T12:08:37;95919.56;;;15.49
71640;BMP280;60912;48.968;10.124;2023-04-24T12:11:04;95920.72;;;16.10
71640;BMP280;60912;48.968;10.124;2023-04-24T12:13:30;95928.91;;;16.41
71640;BMP280;60912;48.968;10.124;2023-04-24T12:16:00;95915.03;;;16.52
71640;BMP280;60912;48.968;10.124;2023-04-24T12:18:26;95916.19;;;16.26
71640;BMP280;60912;48.968;10.124;2023-04-24T12:20:52;95918.75;;;16.45
71640;BMP280;60912;48.968;10.124;2023-04-24T12:23:36;95919.31;;;16.88
71640;BMP280;60912;48.968;10.124;2023-04-24T12:26:04;95912.75;;;17.07
71640;BMP280;60912;48.968;10.124;2023-04-24T12:28:37;95920.84;;;17.26
71640;BMP280;60912;48.968;10.124;2023-04-24T12:31:03;95916.16;;;17.17
71640;BMP280;60912;48.968;10.124;2023-04-24T12:33:33;95913.38;;;17.05
71640;BMP280;60912;48.968;10.124;2023-04-24T12:35:59;95922.81;;;17.12
71640;BMP280;60912;48.968;10.124;2023-04-24T12:38:28;95926.19;;;16.99
71640;BMP280;60912;48.968;10.124;2023-04-24T12:41:06;95933.91;;;16.21
71640;BMP280;60912;48.968;10.124;2023-04-24T12:43:32;95935.25;;;15.66
71640;BMP280;60912;48.968;10.124;2023-04-24T12:45:58;95942.41;;;15.38
71640;BMP280;60912;48.968;10.124;2023-04-24T12:48:27;95934.91;;;15.29
71640;BMP280;60912;48.968;10.124;2023-04-24T12:50:52;95945.50;;;15.33
71640;BMP280;60912;48.968;10.124;2023-04-24T12:53:18;95949.22;;;15.47
71640;BMP280;60912;48.968;10.124;2023-04-24T12:55:43;95936.38;;;15.51
71640;BMP280;60912;48.968;10.124;2023-04-24T12:58:10;95930.00;;;15.39
71640;BMP280;60912;48.968;10.124;2023-04-24T13:00:36;95927.47;;;15.43
71640;BMP280;60912;48.968;10.124;2023-04-24T13:03:04;95935.75;;;15.53
71640;BMP280;60912;48.968;10.124;2023-04-24T13:05:30;95938.41;;;15.72
71640;BMP280;60912;48.968;10.124;2023-04-24T13:07:56;95939.66;;;15.38
71640;BMP280;60912;48.968;10.124;2023-04-24T13:10:22;95942.09;;;15.44
71640;BMP280;60912;48.968;10.124;2023-04-24T13:12:47;95947.78;;;15.15
71640;BMP280;60912;48.968;10.124;2023-04-24T13:15:13;95937.00;;;14.69
71640;BMP280;60912;48.968;10.124;2023-04-24T13:17:38;95944.47;;;14.66
71640;BMP280;60912;48.968;10.124;2023-04-24T13:20:04;95941.72;;;14.47
71640;BMP280;60912;48.968;10.124;2023-04-24T13:22:30;95937.72;;;14.69
71640;BMP280;60912;48.968;10.124;2023-04-24T13:24:55;95938.78;;;15.05
71640;BMP280;60912;48.968;10.124;2023-04-24T13:27:21;95941.25;;;15.10
71640;BMP280;60912;48.968;10.124;2023-04-24T13:29:46;95943.66;;;15.26
71640;BMP280;60912;48.968;10.124;2023-04-24T13:32:12;95936.28;;;15.40
71640;BMP280;60912;48.968;10.124;2023-04-24T13:34:37;95937.69;;;15.50
71640;BMP280;60912;48.968;10.124;2023-04-24T13:37:03;95937.41;;;15.89
71640;BMP280;60912;48.968;10.124;2023-04-24T13:39:29;95934.75;;;15.69
71640;BMP280;60912;48.968;10.124;2023-04-24T13:41:54;95935.25;;;15.66
71640;BMP280;60912;48.968;10.124;2023-04-24T13:44:21;95933.78;;;15.65
71640;BMP280;60912;48.968;10.124;2023-04-24T13:46:49;95943.50;;;15.76
71640;BMP280;60912;48.968;10.124;2023-04-24T13:49:16;95943.63;;;15.56
71640;BMP280;60912;48.968;10.124;2023-04-24T13:51:42;95966.13;;;14.99
71640;BMP280;60912;48.968;10.124;2023-04-24T13:54:07;95977.19;;;14.10
71640;BMP280;60912;48.968;10.124;2023-04-24T13:56:33;95981.06;;;13.78
71640;BMP280;60912;48.968;10.124;2023-04-24T13:58:58;95982.50;;;13.60
71640;BMP280;60912;48.968;10.124;2023-04-24T14:01:23;95974.66;;;13.76
71640;BMP280;60912;48.968;10.124;2023-04-24T14:03:53;95970.00;;;13.78
71640;BMP280;60912;48.968;10.124;2023-04-24T14:06:19;95970.31;;;14.21